createdAt,value
2023-02-11T00:02:20.516Z,101625.00
2023-02-11T00:04:48.075Z,101632.25
2023-02-11T00:07:15.687Z,101632.31
2023-02-11T00:09:43.286Z,101636.91
2023-02-11T00:12:10.892Z,101631.03
2023-02-11T00:14:39.884Z,101622.44
2023-02-11T00:17:07.602Z,101611.22
2023-02-11T00:19:35.202Z,101611.22
2023-02-11T00:22:04.870Z,101613.06
2023-02-11T00:24:32.569Z,101608.88
2023-02-11T00:27:00.273Z,101601.69
2023-02-11T00:29:27.969Z,101600.16
2023-02-11T00:31:57.544Z,101594.19
2023-02-11T00:34:25.434Z,101591.72
2023-02-11T00:36:53.681Z,101594.38
2023-02-11T00:39:21.240Z,101590.09
2023-02-11T00:41:48.894Z,101582.25
2023-02-11T00:44:16.538Z,101576.84
2023-02-11T00:46:44.255Z,101463.41
2023-02-11T00:51:48.128Z,101582.00
2023-02-11T00:54:15.712Z,101584.72
2023-02-11T00:56:43.705Z,101584.59
2023-02-11T00:59:11.338Z,101597.69
2023-02-11T01:01:39.840Z,101596.03
2023-02-11T01:04:07.489Z,101579.09
2023-02-11T01:06:35.213Z,101596.16
2023-02-11T01:09:04.467Z,101597.03
2023-02-11T01:11:32.254Z,101593.63
2023-02-11T01:13:59.884Z,101596.31
2023-02-11T01:16:27.651Z,101590.22
2023-02-11T01:18:55.230Z,101587.75
2023-02-11T01:21:23.049Z,101592.84
2023-02-11T01:23:50.625Z,101552.22
2023-02-11T01:26:38.640Z,101593.94
2023-02-11T01:29:06.238Z,101600.03
2023-02-11T01:31:35.238Z,101606.16
2023-02-11T01:34:02.979Z,101603.69
2023-02-11T01:36:36.643Z,101612.44
2023-02-11T01:39:04.268Z,101591.31
2023-02-11T01:41:31.986Z,101595.06
2023-02-11T01:44:29.345Z,101591.53
2023-02-11T01:46:56.961Z,101593.31
2023-02-11T01:49:26.666Z,101595.00
2023-02-11T01:51:56.354Z,101588.00
2023-02-11T01:54:43.052Z,101594.94
2023-02-11T01:57:26.037Z,101601.06
2023-02-11T02:00:00.076Z,101605.38
2023-02-11T02:02:29.421Z,101598.13
2023-02-11T02:05:01.030Z,101617.72
2023-02-11T02:07:31.553Z,101570.06
2023-02-11T02:10:00.735Z,101607.00
2023-02-11T02:12:28.317Z,101542.06
2023-02-11T02:17:54.719Z,101588.13
2023-02-11T02:20:47.409Z,101589.06
2023-02-11T02:23:28.242Z,101574.25
2023-02-11T02:26:35.297Z,101572.47
2023-02-11T02:29:16.093Z,101552.88
2023-02-11T02:31:53.663Z,101552.59
2023-02-11T02:34:24.803Z,101547.50
2023-02-11T02:36:56.362Z,101564.44
2023-02-11T02:39:25.709Z,101531.53
2023-02-11T02:41:53.435Z,101558.31
2023-02-11T02:44:21.397Z,101562.84
2023-02-11T02:46:49.121Z,101561.88
2023-02-11T02:49:17.377Z,101564.50
2023-02-11T02:52:06.720Z,101553.22
2023-02-11T02:55:13.271Z,101525.78
2023-02-11T02:57:49.839Z,101556.53
2023-02-11T03:00:23.397Z,101564.25
2023-02-11T03:02:57.008Z,101549.31
2023-02-11T03:05:27.749Z,101559.97
2023-02-11T03:07:59.534Z,101565.16
2023-02-11T03:10:28.343Z,101564.25
2023-02-11T03:12:56.130Z,101559.84
2023-02-11T03:15:23.906Z,101556.22
2023-02-11T03:17:52.935Z,101547.50
2023-02-11T03:20:21.255Z,101531.47
2023-02-11T03:22:50.712Z,101532.31
2023-02-11T03:25:20.361Z,101542.91
2023-02-11T03:27:53.649Z,101534.00
2023-02-11T03:30:22.652Z,101500.19
2023-02-11T03:32:52.299Z,101516.00
2023-02-11T03:35:22.113Z,101543.47
2023-02-11T03:37:52.386Z,101548.63
2023-02-11T03:40:22.354Z,101552.91
2023-02-11T03:42:51.754Z,101557.19
2023-02-11T03:45:20.998Z,101524.31
2023-02-11T03:47:51.910Z,101569.50
2023-02-11T03:50:19.523Z,101586.97
2023-02-11T03:52:48.336Z,101556.47
2023-02-11T03:55:18.369Z,101516.66
2023-02-11T03:57:48.532Z,101556.53
2023-02-11T04:00:16.717Z,101542.56
2023-02-11T04:02:44.529Z,101487.75
2023-02-11T04:05:16.092Z,101509.72
2023-02-11T04:07:43.957Z,101537.19
2023-02-11T04:10:12.402Z,101522.25
2023-02-11T04:12:40.309Z,101534.66
2023-02-11T04:15:09.893Z,101525.72
2023-02-11T04:17:37.603Z,101528.31
2023-02-11T04:20:05.961Z,101525.59
2023-02-11T04:22:33.540Z,101519.44
2023-02-11T04:25:01.304Z,101531.72
2023-02-11T04:27:28.924Z,101525.59
2023-02-11T04:29:56.878Z,101523.03
2023-02-11T04:32:25.848Z,101500.19
2023-02-11T04:34:54.781Z,101509.06
2023-02-11T04:37:22.405Z,101512.72
2023-02-11T04:39:50.097Z,101521.41
2023-02-11T04:42:17.662Z,101524.03
2023-02-11T04:44:46.339Z,101520.50
2023-02-11T04:47:15.320Z,101567.34
2023-02-11T04:49:44.409Z,101546.47
2023-02-11T04:52:12.014Z,101543.84
2023-02-11T04:54:39.897Z,101545.63
2023-02-11T04:57:07.609Z,101519.91
2023-02-11T04:59:35.314Z,101545.75
2023-02-11T05:02:04.133Z,101538.78
2023-02-11T05:04:36.997Z,101537.91
2023-02-11T05:07:05.944Z,101537.94
2023-02-11T05:09:33.698Z,101534.47
2023-02-11T05:12:01.254Z,101537.13
2023-02-11T05:14:29.911Z,101535.31
2023-02-11T05:16:57.585Z,101534.47
2023-02-11T05:19:25.176Z,101530.09
2023-02-11T05:22:02.100Z,101530.88
2023-02-11T05:24:32.170Z,101536.22
2023-02-11T05:27:00.077Z,101533.66
2023-02-11T05:29:27.772Z,101507.88
2023-02-11T05:31:55.571Z,101523.03
2023-02-11T05:34:23.147Z,101527.41
2023-02-11T05:36:50.988Z,101513.31
2023-02-11T05:39:18.566Z,101529.19
2023-02-11T05:41:47.831Z,101517.88
2023-02-11T05:44:15.615Z,101517.91
2023-02-11T05:46:43.494Z,101516.09
2023-02-11T05:49:11.179Z,101519.53
2023-02-11T05:51:38.865Z,101476.34
2023-02-11T05:54:08.113Z,101506.59
2023-02-11T05:56:35.843Z,101499.59
2023-02-11T05:59:06.355Z,101501.25
2023-02-11T06:01:34.018Z,101464.97
2023-02-11T06:04:03.680Z,101516.25
2023-02-11T06:06:31.407Z,101515.34
2023-02-11T06:08:59.119Z,101522.38
2023-02-11T06:11:26.970Z,101527.59
2023-02-11T06:13:54.536Z,101515.41
2023-02-11T06:16:23.986Z,101525.84
2023-02-11T06:18:59.452Z,101522.31
2023-02-11T06:21:40.026Z,101510.03
2023-02-11T06:24:11.450Z,101516.38
2023-02-11T06:26:39.164Z,101520.63
2023-02-11T06:29:06.737Z,101523.34
2023-02-11T06:31:35.879Z,101520.78
2023-02-11T06:34:03.589Z,101519.94
2023-02-11T06:36:31.228Z,101528.72
2023-02-11T06:38:58.884Z,101519.94
2023-02-11T06:41:26.532Z,101505.81
2023-02-11T06:43:54.246Z,101528.84
2023-02-11T06:46:22.485Z,101487.16
2023-02-11T06:48:51.406Z,101530.50
2023-02-11T06:51:19.282Z,101520.88
2023-02-11T06:56:16.622Z,101464.16
2023-02-11T06:58:44.242Z,101518.16
2023-02-11T07:01:12.700Z,101495.81
2023-02-11T07:03:41.381Z,101541.91
2023-02-11T07:06:12.842Z,101532.31
2023-02-11T07:08:42.407Z,101539.41
2023-02-11T07:11:11.137Z,101543.75
2023-02-11T07:13:38.711Z,101549.81
2023-02-11T07:16:07.680Z,101511.69
2023-02-11T07:18:35.437Z,101553.41
2023-02-11T07:21:05.478Z,101556.84
2023-02-11T07:23:34.568Z,101556.03
2023-02-11T07:26:04.184Z,101512.66
2023-02-11T07:28:31.905Z,101513.66
2023-02-11T07:30:59.753Z,101551.63
2023-02-11T07:33:27.367Z,101554.25
2023-02-11T07:35:55.019Z,101569.94
2023-02-11T07:38:22.651Z,101560.31
2023-02-11T07:40:51.698Z,101565.47
2023-02-11T07:43:19.305Z,101560.25
2023-02-11T07:45:46.878Z,101562.06
2023-02-11T07:48:14.848Z,101565.56
2023-02-11T07:50:42.484Z,101583.13
2023-02-11T07:53:11.699Z,101571.81
2023-02-11T07:55:39.349Z,101570.84
2023-02-11T07:58:08.450Z,101584.03
2023-02-11T08:00:36.488Z,101572.78
2023-02-11T08:03:05.295Z,101570.91
2023-02-11T08:05:33.673Z,101572.72
2023-02-11T08:08:02.459Z,101577.81
2023-02-11T08:10:30.136Z,101571.00
2023-02-11T08:12:57.695Z,101570.19
2023-02-11T08:15:26.752Z,101568.41
2023-02-11T08:17:54.365Z,101569.28
2023-02-11T08:20:23.079Z,101575.41
2023-02-11T08:22:50.718Z,101571.03
2023-02-11T08:25:18.584Z,101568.44
2023-02-11T08:27:46.147Z,101572.06
2023-02-11T08:30:14.986Z,101574.69
2023-02-11T08:32:46.308Z,101579.09
2023-02-11T08:35:14.159Z,101577.38
2023-02-11T08:37:41.744Z,101592.25
2023-02-11T08:40:11.324Z,101573.72
2023-02-11T08:42:39.682Z,101591.47
2023-02-11T08:45:10.371Z,101590.56
2023-02-11T08:47:38.081Z,101600.38
2023-02-11T08:50:07.822Z,101593.34
2023-02-11T08:52:35.489Z,101609.16
2023-02-11T08:55:03.078Z,101604.81
2023-02-11T08:57:30.901Z,101606.63
2023-02-11T08:59:59.550Z,101604.91
2023-02-11T09:02:27.277Z,101614.63
2023-02-11T09:04:54.867Z,101580.09
2023-02-11T09:07:24.074Z,101627.72
2023-02-11T09:09:51.677Z,101625.97
2023-02-11T09:12:19.310Z,101617.28
2023-02-11T09:14:47.133Z,101631.25
2023-02-11T09:17:15.039Z,101633.00
2023-02-11T09:19:42.681Z,101638.31
2023-02-11T09:22:10.351Z,101635.69
2023-02-11T09:24:39.297Z,101642.69
2023-02-11T09:27:06.871Z,101648.03
2023-02-11T09:29:34.457Z,101642.78
2023-02-11T09:32:02.189Z,101641.97
2023-02-11T09:34:29.931Z,101637.56
2023-02-11T09:36:57.513Z,101646.41
2023-02-11T09:39:26.659Z,101645.63
2023-02-11T09:42:25.841Z,101661.47
2023-02-11T09:44:53.835Z,101652.78
2023-02-11T09:47:26.955Z,101655.41
2023-02-11T09:50:00.045Z,101658.88
2023-02-11T09:52:33.633Z,101656.25
2023-02-11T09:55:01.896Z,101657.22
2023-02-11T09:57:33.365Z,101613.56
2023-02-11T10:00:01.345Z,101666.84
2023-02-11T10:02:33.352Z,101666.59
2023-02-11T10:05:13.691Z,101678.25
2023-02-11T10:07:43.894Z,101662.53
2023-02-11T10:10:14.542Z,101686.19
2023-02-11T10:13:01.598Z,101674.09
2023-02-11T10:15:34.082Z,101649.38
2023-02-11T10:18:16.999Z,101671.59
2023-02-11T10:20:49.950Z,101617.59
2023-02-11T10:23:20.102Z,101670.00
2023-02-11T10:25:50.635Z,101667.34
2023-02-11T10:28:20.402Z,101662.91
2023-02-11T10:30:52.918Z,101690.13
2023-02-11T10:33:24.019Z,101634.00
2023-02-11T10:35:51.561Z,101695.38
2023-02-11T10:38:20.207Z,101686.81
2023-02-11T10:40:47.851Z,101731.34
2023-02-11T10:43:16.734Z,101688.56
2023-02-11T10:45:46.629Z,101690.25
2023-02-11T10:48:40.846Z,101688.63
2023-02-11T10:51:09.716Z,101697.34
2023-02-11T10:53:37.400Z,101683.41
2023-02-11T10:56:05.386Z,101685.16
2023-02-11T10:58:44.057Z,101685.09
2023-02-11T11:01:23.952Z,101699.09
2023-02-11T11:03:52.406Z,101692.16
2023-02-11T11:06:30.106Z,101667.28
2023-02-11T11:08:57.742Z,101678.09
2023-02-11T11:11:26.314Z,101695.84
2023-02-11T11:13:59.083Z,101688.81
2023-02-11T11:16:29.094Z,101688.03
2023-02-11T11:19:16.352Z,101684.56
2023-02-11T11:21:44.611Z,101681.94
2023-02-11T11:24:17.543Z,101688.16
2023-02-11T11:26:46.149Z,101665.94
2023-02-11T11:29:16.029Z,101671.38
2023-02-11T11:31:50.368Z,101692.63
2023-02-11T11:34:23.295Z,101696.13
2023-02-11T11:36:50.903Z,101703.16
2023-02-11T11:39:21.530Z,101692.69
2023-02-11T11:41:56.508Z,101685.72
2023-02-11T11:44:32.186Z,101689.06
2023-02-11T11:47:27.612Z,101693.53
2023-02-11T11:50:11.886Z,101698.59
2023-02-11T11:52:42.596Z,101692.41
2023-02-11T11:55:14.385Z,101697.69
2023-02-11T11:57:42.169Z,101692.50
2023-02-11T12:00:16.437Z,101688.94
2023-02-11T12:03:22.722Z,101683.81
2023-02-11T12:06:00.046Z,101675.72
2023-02-11T12:08:33.569Z,101682.97
2023-02-11T12:11:06.946Z,101689.19
2023-02-11T12:13:42.053Z,101640.28
2023-02-11T12:16:15.793Z,101678.72
2023-02-11T12:19:07.571Z,101672.50
2023-02-11T12:21:41.308Z,101673.63
2023-02-11T12:24:18.065Z,101654.19
2023-02-11T12:26:47.328Z,101651.66
2023-02-11T12:29:20.257Z,101664.22
2023-02-11T12:31:57.411Z,101662.53
2023-02-11T12:34:36.619Z,101662.59
2023-02-11T12:37:10.203Z,101618.31
2023-02-11T12:39:42.180Z,101641.34
2023-02-11T12:42:55.028Z,101670.56
2023-02-11T12:45:28.636Z,101670.50
2023-02-11T12:48:03.350Z,101668.72
2023-02-11T12:50:34.171Z,101665.38
2023-02-11T12:53:26.224Z,101661.09
2023-02-11T12:55:57.751Z,101648.81
2023-02-11T12:58:35.475Z,101625.72
2023-02-11T13:01:09.345Z,101623.09
2023-02-11T13:03:38.748Z,101635.22
2023-02-11T13:06:07.770Z,101691.81
2023-02-11T13:08:38.265Z,101668.31
2023-02-11T13:11:14.246Z,101665.75
2023-02-11T13:13:48.193Z,101663.19
2023-02-11T13:16:20.635Z,101663.19
2023-02-11T13:18:51.392Z,101660.63
2023-02-11T13:21:44.201Z,101659.84
2023-02-11T13:24:20.351Z,101672.97
2023-02-11T13:26:51.197Z,101666.06
2023-02-11T13:29:25.063Z,101659.97
2023-02-11T13:31:56.249Z,101648.69
2023-02-11T13:34:27.877Z,101654.78
2023-02-11T13:36:56.114Z,101658.38
2023-02-11T13:39:25.156Z,101654.00
2023-02-11T13:41:52.989Z,101656.81
2023-02-11T13:44:26.700Z,101662.09
2023-02-11T13:46:59.603Z,101637.47
2023-02-11T13:49:31.189Z,101647.16
2023-02-11T13:51:59.293Z,101575.50
2023-02-11T13:54:30.932Z,101655.84
2023-02-11T13:57:23.740Z,101662.16
2023-02-11T13:59:51.469Z,101624.00
2023-02-11T14:02:42.435Z,101655.16
2023-02-11T14:05:45.591Z,101657.81
2023-02-11T14:08:39.515Z,101663.00
2023-02-11T14:11:12.341Z,101663.91
2023-02-11T14:14:15.736Z,101663.91
2023-02-11T14:17:22.050Z,101665.69
2023-02-11T14:19:50.356Z,101639.78
2023-02-11T14:22:19.413Z,101654.25
2023-02-11T14:24:52.427Z,101595.84
2023-02-11T14:27:26.198Z,101647.91
2023-02-11T14:30:08.676Z,101663.91
2023-02-11T14:32:41.519Z,101677.00
2023-02-11T14:35:11.151Z,101666.44
2023-02-11T14:37:50.336Z,101669.06
2023-02-11T14:40:24.160Z,101672.63
2023-02-11T14:42:53.861Z,101674.41
2023-02-11T14:45:24.795Z,101658.47
2023-02-11T14:47:54.615Z,101673.53
2023-02-11T14:50:25.105Z,101677.03
2023-02-11T14:52:52.831Z,101677.94
2023-02-11T14:55:30.088Z,101684.06
2023-02-11T14:58:12.485Z,101681.44
2023-02-11T15:00:53.646Z,101676.06
2023-02-11T15:03:35.835Z,101660.88
2023-02-11T15:06:05.962Z,101689.25
2023-02-11T15:08:34.273Z,101681.34
2023-02-11T15:11:02.694Z,101643.25
2023-02-11T15:13:32.044Z,101691.78
2023-02-11T15:16:02.002Z,101689.22
2023-02-11T15:18:34.361Z,101688.34
2023-02-11T15:21:01.956Z,101686.69
2023-02-11T15:23:30.866Z,101688.50
2023-02-11T15:26:03.032Z,101687.53
2023-02-11T15:28:32.920Z,101683.22
2023-02-11T15:31:01.816Z,101684.88
2023-02-11T15:33:31.928Z,101683.81
2023-02-11T15:36:00.253Z,101679.31
2023-02-11T15:38:27.972Z,101700.59
2023-02-11T15:40:57.098Z,101698.91
2023-02-11T15:43:24.750Z,101691.03
2023-02-11T15:45:59.128Z,101689.31
2023-02-11T15:48:31.525Z,101687.59
2023-02-11T15:51:00.920Z,101691.03
2023-02-11T15:53:29.649Z,101707.59
2023-02-11T15:56:02.298Z,101691.97
2023-02-11T15:58:29.946Z,101709.56
2023-02-11T16:00:59.996Z,101704.34
2023-02-11T16:03:32.271Z,101682.16
2023-02-11T16:06:18.574Z,101710.53
2023-02-11T16:08:57.735Z,101705.28
2023-02-11T16:11:26.863Z,101705.19
2023-02-11T16:13:54.498Z,101706.91
2023-02-11T16:16:24.323Z,101714.81
2023-02-11T16:19:03.134Z,101721.59
2023-02-11T16:21:35.520Z,101656.31
2023-02-11T16:24:03.794Z,101713.84
2023-02-11T16:26:33.288Z,101714.69
2023-02-11T16:29:11.454Z,101720.81
2023-02-11T16:31:42.081Z,101726.00
2023-02-11T16:34:14.424Z,101723.38
2023-02-11T16:36:42.058Z,101719.84
2023-02-11T16:39:09.752Z,101733.84
2023-02-11T16:41:37.355Z,101734.72
2023-02-11T16:44:05.086Z,101721.41
2023-02-11T16:46:33.047Z,101737.28
2023-02-11T16:49:09.728Z,101737.16
2023-02-11T16:51:40.055Z,101744.97
2023-02-11T16:54:07.657Z,101742.34
2023-02-11T16:56:38.525Z,101744.06
2023-02-11T16:59:06.143Z,101743.22
2023-02-11T17:01:33.855Z,101705.03
2023-02-11T17:04:02.823Z,101750.16
2023-02-11T17:06:30.689Z,101749.25
2023-02-11T17:08:58.266Z,101756.19
2023-02-11T17:11:29.381Z,101758.88
2023-02-11T17:13:57.047Z,101763.13
2023-02-11T17:16:27.630Z,101752.56
2023-02-11T17:19:00.240Z,101761.38
2023-02-11T17:21:31.383Z,101757.91
2023-02-11T17:23:58.972Z,101764.00
2023-02-11T17:26:26.650Z,101763.13
2023-02-11T17:28:54.220Z,101767.53
2023-02-11T17:31:27.715Z,101755.28
2023-02-11T17:33:58.278Z,101753.31
2023-02-11T17:36:25.845Z,101754.25
2023-02-11T17:38:55.536Z,101729.50
2023-02-11T17:41:23.434Z,101763.13
2023-02-11T17:43:51.925Z,101768.38
2023-02-11T17:46:19.581Z,101766.59
2023-02-11T17:48:47.275Z,101777.91
2023-02-11T17:51:24.356Z,101735.50
2023-02-11T17:53:52.101Z,101764.78
2023-02-11T17:59:03.396Z,101770.94
2023-02-11T18:01:31.428Z,101761.84
2023-02-11T18:03:59.067Z,101773.50
2023-02-11T18:06:28.948Z,101780.53
2023-02-11T18:08:58.020Z,101775.16
2023-02-11T18:11:25.957Z,101783.81
2023-02-11T18:13:54.489Z,101792.63
2023-02-11T18:16:23.781Z,101778.41
2023-02-11T18:18:51.510Z,101805.84
2023-02-11T18:21:20.622Z,101769.47
2023-02-11T18:23:48.248Z,101818.91
2023-02-11T18:26:16.647Z,101789.38
2023-02-11T18:28:45.988Z,101825.91
2023-02-11T18:31:14.475Z,101791.38
2023-02-11T18:33:43.602Z,101819.78
2023-02-11T18:36:15.300Z,101797.56
2023-02-11T18:38:44.960Z,101733.13
2023-02-11T18:41:13.073Z,101823.34
2023-02-11T18:43:40.897Z,101816.38
2023-02-11T18:46:11.533Z,101816.28
2023-02-11T18:48:39.614Z,101824.13
2023-02-11T18:51:10.965Z,101823.25
2023-02-11T18:53:38.747Z,101771.88
2023-02-11T18:56:13.100Z,101818.78
2023-02-11T18:58:42.018Z,101825.94
2023-02-11T19:01:13.831Z,101816.38
2023-02-11T19:03:44.928Z,101815.47
2023-02-11T19:06:19.767Z,101824.22
2023-02-11T19:08:47.592Z,101832.09
2023-02-11T19:11:17.184Z,101825.91
2023-02-11T19:13:44.813Z,101836.47
2023-02-11T19:16:14.763Z,101813.28
2023-02-11T19:18:43.564Z,101811.47
2023-02-11T19:21:11.788Z,101866.22
2023-02-11T19:23:44.799Z,101855.72
2023-02-11T19:26:12.733Z,101855.78
2023-02-11T19:28:40.469Z,101801.84
2023-02-11T19:31:09.153Z,101823.09
2023-02-11T19:33:36.870Z,101848.91
2023-02-11T19:36:06.662Z,101853.28
2023-02-11T19:38:37.004Z,101849.81
2023-02-11T19:41:08.800Z,101814.28
2023-02-11T19:43:36.591Z,101844.56
2023-02-11T19:46:04.318Z,101853.34
2023-02-11T19:48:40.772Z,101864.69
2023-02-11T19:51:10.858Z,101852.13
2023-02-11T19:53:40.965Z,101861.19
2023-02-11T19:56:10.493Z,101875.16
2023-02-11T19:58:39.499Z,101862.06
2023-02-11T20:01:08.334Z,101859.31
2023-02-11T20:03:36.426Z,101871.63
2023-02-11T20:06:06.080Z,101869.88
2023-02-11T20:08:34.145Z,101864.56
2023-02-11T20:11:07.348Z,101875.16
2023-02-11T20:13:37.566Z,101879.59
2023-02-11T20:16:07.121Z,101883.03
2023-02-11T20:18:34.925Z,101880.47
2023-02-11T20:21:07.517Z,101879.53
2023-02-11T20:23:35.287Z,101859.03
2023-02-11T20:26:07.199Z,101883.03
2023-02-11T20:28:37.427Z,101875.16
2023-02-11T20:31:06.008Z,101853.78
2023-02-11T20:33:34.934Z,101890.88
2023-02-11T20:36:04.075Z,101869.44
2023-02-11T20:38:32.207Z,101907.44
2023-02-11T20:41:03.956Z,101895.19
2023-02-11T20:43:31.913Z,101886.47
2023-02-11T20:46:04.282Z,101889.97
2023-02-11T20:48:32.194Z,101897.88
2023-02-11T20:51:06.484Z,101906.59
2023-02-11T20:53:35.333Z,101911.84
2023-02-11T20:56:03.788Z,101785.97
2023-02-11T20:58:31.774Z,101903.06
2023-02-11T21:01:08.463Z,101906.50
2023-02-11T21:03:36.257Z,101902.16
2023-02-11T21:06:04.711Z,101913.53
2023-02-11T21:08:33.208Z,101909.22
2023-02-11T21:11:01.852Z,101903.97
2023-02-11T21:13:29.568Z,101909.16
2023-02-11T21:15:58.511Z,101875.47
2023-02-11T21:18:27.526Z,101872.72
2023-02-11T21:21:00.839Z,101897.53
2023-02-11T21:23:28.981Z,101909.22
2023-02-11T21:25:57.255Z,101917.94
2023-02-11T21:28:27.527Z,101917.03
2023-02-11T21:31:18.266Z,101953.66
2023-02-11T21:33:47.324Z,101731.00
2023-02-11T21:36:15.047Z,101915.31
2023-02-11T21:38:42.685Z,101913.47
2023-02-11T21:41:10.368Z,101920.53
2023-02-11T21:43:41.017Z,101973.53
2023-02-11T21:46:09.838Z,101914.09
2023-02-11T21:48:37.608Z,101928.28
2023-02-11T21:51:07.894Z,101925.69
2023-02-11T21:53:35.517Z,101931.81
2023-02-11T21:56:07.322Z,101924.59
2023-02-11T21:58:37.032Z,101931.69
2023-02-11T22:01:13.779Z,101918.28
2023-02-11T22:03:41.785Z,101918.34
2023-02-11T22:06:12.425Z,101934.31
2023-02-11T22:08:40.021Z,101909.59
2023-02-11T22:11:08.621Z,101926.53
2023-02-11T22:13:36.764Z,101929.94
2023-02-11T22:16:05.565Z,101923.00
2023-02-11T22:18:33.345Z,101927.31
2023-02-11T22:21:01.529Z,101908.75
2023-02-11T22:23:30.597Z,101909.69
2023-02-11T22:26:00.347Z,101917.75
2023-02-11T22:28:27.990Z,101922.13
2023-02-11T22:30:55.914Z,101890.09
2023-02-11T22:33:28.598Z,101926.47
2023-02-11T22:35:59.917Z,101914.22
2023-02-11T22:38:30.556Z,101916.03
2023-02-11T22:40:59.700Z,101861.97
2023-02-11T22:43:28.152Z,101907.81
2023-02-11T22:45:56.994Z,101926.41
2023-02-11T22:48:27.936Z,101935.19
2023-02-11T22:51:04.680Z,101934.31
2023-02-11T22:53:32.287Z,101933.41
2023-02-11T22:56:15.976Z,101934.25
2023-02-11T22:58:44.124Z,101939.47
2023-02-11T23:01:12.574Z,101943.88
2023-02-11T23:03:40.383Z,101941.25
2023-02-11T23:06:08.283Z,101944.75
2023-02-11T23:08:36.143Z,101925.97
2023-02-11T23:11:05.528Z,101948.22
2023-02-11T23:13:37.884Z,101933.88
2023-02-11T23:16:06.372Z,101960.50
2023-02-11T23:18:34.359Z,101966.59
2023-02-11T23:21:06.832Z,101969.16
2023-02-11T23:23:34.503Z,101975.19
2023-02-11T23:26:02.302Z,101974.53
2023-02-11T23:28:30.086Z,101972.75
2023-02-11T23:30:59.094Z,101965.75
2023-02-11T23:33:26.758Z,101973.66
2023-02-11T23:35:54.658Z,101973.66
2023-02-11T23:38:22.497Z,101942.47
2023-02-11T23:40:50.352Z,101976.31
2023-02-11T23:43:18.098Z,101983.31
2023-02-11T23:45:45.791Z,101981.47
2023-02-11T23:48:14.843Z,101979.84
2023-02-11T23:50:44.043Z,101981.66
2023-02-11T23:53:11.611Z,101985.13
2023-02-11T23:55:41.137Z,101963.00
2023-02-11T23:58:08.828Z,101976.41
